Time;durP1;ratioP1;P1;durP2;ratioP2;P2;SDS_P1;SDS_P2;PMS_P1;PMS_P2;Temp;Humidity;BMP_temperature;BMP_pressure;BME280_temperature;BME280_humidity;BME280_pressure;Samples;Min_cycle;Max_cycle;Signal;HPM_P1;HPM_P2
2023/12/25 00:04:06;;;;;;;25.23;11.95;;;;;;;12.20;100.00;101623.16;10620703;27;20643;-83
2023/12/25 00:09:28;;;;;;;26.25;15.95;;;;;;;11.95;100.00;101627.88;10647753;27;20047;-84
2023/12/25 00:14:52;;;;;;;15.38;8.88;;;;;;;11.88;100.00;101633.00;10608597;27;20466;-83
2023/12/25 00:20:18;;;;;;;16.23;7.13;;;;;;;11.90;100.00;101618.94;10603779;27;20733;-82
2023/12/25 00:25:40;;;;;;;22.08;10.70;;;;;;;11.87;100.00;101615.34;10614591;27;20047;-83
2023/12/25 00:31:06;;;;;;;20.58;7.63;;;;;;;11.77;100.00;101606.28;10614818;27;20654;-83
2023/12/25 00:36:31;;;;;;;17.63;5.25;;;;;;;11.69;100.00;101609.53;10631728;27;20055;-83
2023/12/25 00:41:53;;;;;;;11.32;3.03;;;;;;;11.81;100.00;101605.50;10595615;27;20047;-84
2023/12/25 00:47:17;;;;;;;13.90;4.22;;;;;;;11.82;100.00;101601.09;10626336;27;20054;-85
2023/12/25 00:52:40;;;;;;;12.32;4.72;;;;;;;11.72;100.00;101607.88;10563659;28;20055;-83
2023/12/25 00:58:02;;;;;;;15.68;4.70;;;;;;;11.72;100.00;101602.59;10588815;27;20143;-83
2023/12/25 01:03:26;;;;;;;14.20;6.32;;;;;;;11.61;100.00;101603.19;10562619;28;20039;-83
2023/12/25 01:08:48;;;;;;;13.93;5.95;;;;;;;11.56;100.00;101605.69;10576901;28;20441;-84
2023/12/25 01:14:11;;;;;;;13.80;4.45;;;;;;;11.62;100.00;101619.06;10582723;27;20043;-83
2023/12/25 01:19:35;;;;;;;17.05;3.92;;;;;;;11.71;100.00;101613.13;10604879;27;20119;-84
2023/12/25 01:24:58;;;;;;;10.85;3.13;;;;;;;11.86;100.00;101611.78;10559188;27;20101;-84
2023/12/25 01:30:21;;;;;;;14.05;6.35;;;;;;;11.84;100.00;101608.22;10562303;28;20142;-82
2023/12/25 01:35:45;;;;;;;13.93;5.50;;;;;;;11.71;100.00;101621.97;10561215;28;20048;-83
2023/12/25 01:41:08;;;;;;;10.68;3.10;;;;;;;11.72;100.00;101623.75;10562189;28;20087;-84
2023/12/25 01:46:31;;;;;;;12.38;5.45;;;;;;;11.69;100.00;101626.31;10578061;27;20151;-84
2023/12/25 01:51:56;;;;;;;12.77;6.13;;;;;;;11.51;100.00;101641.72;10577050;28;20049;-83
2023/12/25 01:57:18;;;;;;;11.27;6.25;;;;;;;11.72;100.00;101634.34;10585661;28;20154;-84
2023/12/25 02:02:42;;;;;;;17.50;6.50;;;;;;;11.85;100.00;101630.28;10603806;28;20058;-84
2023/12/25 02:08:08;;;;;;;13.07;7.35;;;;;;;11.82;100.00;101635.47;10587001;27;20453;-84
2023/12/25 02:13:30;;;;;;;29.92;15.23;;;;;;;11.79;100.00;101622.19;10592918;27;20407;-83
2023/12/25 02:18:53;;;;;;;17.00;8.00;;;;;;;11.64;100.00;101641.19;10589268;27;20121;-83
2023/12/25 02:24:24;;;;;;;65.60;36.58;;;;;;;11.61;100.00;101635.81;10613436;27;20082;-83
2023/12/25 02:29:47;;;;;;;21.92;10.35;;;;;;;11.63;100.00;101628.81;10602057;27;20036;-83
2023/12/25 02:35:10;;;;;;;25.45;9.57;;;;;;;11.65;100.00;101635.03;10579482;27;20051;-82
2023/12/25 02:40:35;;;;;;;10.70;4.18;;;;;;;11.73;100.00;101638.78;10614332;27;20047;-83
2023/12/25 02:45:59;;;;;;;6.22;2.20;;;;;;;11.97;100.00;101636.75;10576295;27;20051;-83
2023/12/25 02:51:21;;;;;;;10.60;2.80;;;;;;;11.97;100.00;101634.09;10596580;27;20096;-83
2023/12/25 02:56:44;;;;;;;30.50;14.10;;;;;;;11.94;100.00;101625.22;10630473;27;20039;-83
2023/12/25 03:02:10;;;;;;;13.43;4.57;;;;;;;11.73;100.00;101633.47;10623290;27;20051;-84
2023/12/25 03:07:32;;;;;;;11.18;3.05;;;;;;;11.66;100.00;101634.19;10650288;27;20049;-83
2023/12/25 03:12:55;;;;;;;24.65;10.75;;;;;;;11.62;100.00;101639.38;10632402;27;20035;-83
2023/12/25 03:18:19;;;;;;;38.80;16.52;;;;;;;11.51;100.00;101637.31;10611249;27;20054;-83
2023/12/25 03:23:41;;;;;;;23.38;10.32;;;;;;;11.39;100.00;101644.03;10621809;27;20051;-82
2023/12/25 03:29:04;;;;;;;15.73;3.80;;;;;;;11.32;100.00;101647.38;10625817;27;20125;-82
2023/12/25 03:34:28;;;;;;;7.72;3.10;;;;;;;11.51;100.00;101654.94;10624285;27;20112;-82
2023/12/25 03:39:51;;;;;;;15.63;10.98;;;;;;;11.80;100.00;101653.97;10604502;27;20035;-85
2023/12/25 03:45:14;;;;;;;22.73;13.23;;;;;;;11.89;100.00;101651.53;10594155;27;20043;-84
2023/12/25 03:50:38;;;;;;;11.05;3.25;;;;;;;11.70;100.00;101656.31;10611538;27;20138;-81
2023/12/25 03:56:03;;;;;;;8.23;3.17;;;;;;;11.65;100.00;101668.53;10628423;27;20088;-82
2023/12/25 04:01:26;;;;;;;8.75;3.83;;;;;;;11.85;100.00;101662.91;10618603;27;20738;-82
2023/12/25 04:06:50;;;;;;;14.75;6.38;;;;;;;12.26;100.00;101665.66;10611895;27;20038;-83
2023/12/25 04:12:12;;;;;;;11.65;4.10;;;;;;;12.21;100.00;101675.22;10647904;27;20042;-81
2023/12/25 04:17:34;;;;;;;12.68;3.88;;;;;;;12.20;100.00;101669.06;10600970;27;20092;-82
2023/12/25 04:22:59;;;;;;;10.23;3.30;;;;;;;11.98;100.00;101680.88;10634295;27;20047;-84
2023/12/25 04:28:23;;;;;;;11.85;3.03;;;;;;;11.99;100.00;101684.44;10606081;27;20054;-84
2023/12/25 04:33:46;;;;;;;12.45;3.85;;;;;;;11.98;100.00;101672.06;10610667;27;20053;-83
2023/12/25 04:39:10;;;;;;;11.57;3.72;;;;;;;12.03;100.00;101678.34;10620317;27;20039;-83
2023/12/25 04:44:32;;;;;;;22.33;7.45;;;;;;;11.77;100.00;101688.28;10627392;27;20053;-84
2023/12/25 04:49:55;;;;;;;12.32;4.78;;;;;;;11.96;100.00;101687.88;10616988;27;20124;-83
2023/12/25 04:55:19;;;;;;;10.43;3.80;;;;;;;12.30;100.00;101684.28;10638461;27;20065;-83
2023/12/25 05:00:42;;;;;;;13.10;2.83;;;;;;;12.14;100.00;101686.56;10626000;27;20042;-83
2023/12/25 05:06:04;;;;;;;12.50;5.72;;;;;;;12.10;100.00;101689.97;10627185;27;20500;-82
2023/12/25 05:11:28;;;;;;;8.93;3.55;;;;;;;11.88;100.00;101691.22;10617896;27;20058;-85
2023/12/25 05:16:51;;;;;;;8.20;3.25;;;;;;;11.69;100.00;101697.72;10624193;27;20602;-82
2023/12/25 05:22:14;;;;;;;13.63;5.88;;;;;;;11.58;100.00;101701.84;10624586;27;20054;-83
2023/12/25 05:27:37;;;;;;;17.10;8.13;;;;;;;11.57;100.00;101703.59;10624001;27;20051;-82
2023/12/25 05:33:00;;;;;;;11.00;4.05;;;;;;;11.56;100.00;101715.03;10621504;27;20421;-82
2023/12/25 05:38:22;;;;;;;10.15;3.10;;;;;;;11.51;100.00;101714.00;10612961;27;20055;-81
2023/12/25 05:43:46;;;;;;;11.93;3.83;;;;;;;11.57;100.00;101718.56;10606840;27;20080;-80
2023/12/25 05:49:09;;;;;;;12.93;4.70;;;;;;;11.77;100.00;101727.06;10629478;27;20047;-81
2023/12/25 05:54:33;;;;;;;21.90;6.13;;;;;;;11.79;100.00;101720.97;10625187;27;20042;-81
2023/12/25 05:59:57;;;;;;;8.98;3.90;;;;;;;12.19;100.00;101714.91;10610657;27;20043;-82
2023/12/25 06:05:20;;;;;;;10.75;3.80;;;;;;;12.44;100.00;101721.69;10600541;27;20137;-83
2023/12/25 06:10:43;;;;;;;32.95;14.88;;;;;;;12.47;100.00;101731.47;10632217;27;20096;-84
2023/12/25 06:16:08;;;;;;;9.07;2.83;;;;;;;12.63;100.00;101728.31;10625411;27;20134;-83
2023/12/25 06:21:30;;;;;;;11.38;3.58;;;;;;;13.29;100.00;101728.88;10611517;27;20049;-83
2023/12/25 06:26:53;;;;;;;17.48;6.40;;;;;;;16.69;100.00;101712.13;10609724;27;20043;-84
2023/12/25 06:32:17;;;;;;;12.35;5.95;;;;;;;19.49;100.00;101710.44;10602837;27;20043;-83
2023/12/25 06:37:39;;;;;;;10.77;6.10;;;;;;;21.36;100.00;101703.31;10601094;27;20059;-83
2023/12/25 06:43:01;;;;;;;15.48;6.80;;;;;;;22.42;98.59;101707.94;10602673;27;20039;-82
2023/12/25 06:48:25;;;;;;;14.48;5.97;;;;;;;23.53;90.04;101724.59;10588293;28;20050;-84
2023/12/25 06:53:48;;;;;;;17.73;9.07;;;;;;;24.33;85.75;101711.88;10592888;27;20047;-87
2023/12/25 06:59:11;;;;;;;14.82;8.73;;;;;;;25.03;80.74;101715.34;10617703;27;20047;-85
2023/12/25 07:04:35;;;;;;;15.60;8.68;;;;;;;25.70;73.72;101721.47;10603468;27;20130;-83
2023/12/25 07:09:59;;;;;;;18.60;9.20;;;;;;;25.56;78.12;101711.03;10619583;27;20053;-86
2023/12/25 07:15:22;;;;;;;15.35;7.40;;;;;;;26.42;70.52;101712.75;10603820;27;20058;-83
2023/12/25 07:20:48;;;;;;;14.57;5.20;;;;;;;26.70;66.01;101711.78;10630797;27;20058;-86
2023/12/25 07:26:11;;;;;;;30.23;15.82;;;;;;;27.34;62.25;101710.28;10571406;27;20049;-85
2023/12/25 07:31:34;;;;;;;22.90;13.55;;;;;;;28.14;57.93;101723.34;10626173;27;20054;-87
2023/12/25 07:37:01;;;;;;;21.52;11.23;;;;;;;29.17;52.82;101726.03;10579257;27;20039;-85
2023/12/25 07:42:24;;;;;;;19.00;8.63;;;;;;;29.28;49.46;101730.97;10586981;27;20638;-87
2023/12/25 07:47:47;;;;;;;16.67;3.70;;;;;;;28.20;54.06;101726.75;10628752;27;20042;-87
2023/12/25 07:53:14;;;;;;;12.32;7.50;;;;;;;26.95;57.78;101724.41;10621830;27;20054;-87
2023/12/25 07:58:36;;;;;;;10.03;4.03;;;;;;;27.14;56.71;101732.72;10596303;27;20060;-86
2023/12/25 08:03:59;;;;;;;9.65;4.55;;;;;;;27.12;53.86;101731.00;10617062;27;20049;-87
2023/12/25 08:09:23;;;;;;;15.30;6.47;;;;;;;26.13;58.67;101729.06;10603551;27;20043;-85
2023/12/25 08:14:46;;;;;;;12.05;2.17;;;;;;;26.41;59.41;101729.94;10617385;27;20046;-86
2023/12/25 08:20:10;;;;;;;8.77;2.60;;;;;;;25.90;58.36;101734.34;10614933;27;20050;-85
2023/12/25 08:25:35;;;;;;;11.00;2.88;;;;;;;25.73;57.82;101738.47;10617651;27;20056;-85
2023/12/25 08:30:57;;;;;;;8.63;2.60;;;;;;;26.03;55.29;101744.72;10605706;27;20475;-82
2023/12/25 08:36:20;;;;;;;9.82;2.75;;;;;;;26.50;52.61;101742.28;10589805;27;20054;-84
2023/12/25 08:41:48;;;;;;;10.05;2.83;;;;;;;26.62;52.26;101736.44;10636047;27;20053;-86
2023/12/25 08:47:10;;;;;;;10.10;2.55;;;;;;;26.76;50.65;101739.53;10612992;27;20515;-81
2023/12/25 08:52:32;;;;;;;10.27;2.47;;;;;;;27.16;50.29;101732.69;10621757;27;20517;-82
2023/12/25 08:57:56;;;;;;;10.02;2.47;;;;;;;27.38;49.48;101733.63;10604988;27;20043;-81
2023/12/25 09:03:19;;;;;;;9.40;2.65;;;;;;;27.24;49.06;101723.28;10605298;27;20509;-85
2023/12/25 09:08:41;;;;;;;12.18;2.47;;;;;;;28.03;47.66;101712.00;10630080;27;20100;-87
2023/12/25 09:14:05;;;;;;;7.72;2.35;;;;;;;27.95;45.93;101713.28;10627781;27;20061;-87
2023/12/25 09:19:27;;;;;;;8.77;2.17;;;;;;;28.16;45.59;101711.53;10596582;27;20043;-86
2023/12/25 09:24:50;;;;;;;10.90;2.30;;;;;;;28.92;42.42;101690.94;10620312;27;20039;-88
2023/12/25 09:30:15;;;;;;;8.35;2.30;;;;;;;28.06;44.89;101694.72;10621203;27;20043;-87
2023/12/25 09:35:38;;;;;;;7.63;1.85;;;;;;;29.39;41.78;101695.13;10602404;27;20067;-87
2023/12/25 09:41:00;;;;;;;9.60;2.33;;;;;;;29.02;42.17;101677.78;10635183;27;20726;-88
2023/12/25 09:46:29;;;;;;;9.80;2.30;;;;;;;28.61;42.76;101667.91;10577200;27;20078;-87
2023/12/25 09:51:56;;;;;;;9.95;2.92;;;;;;;28.15;43.78;101659.06;10601854;27;20069;-87
2023/12/25 09:57:19;;;;;;;;;;;;;;;28.45;44.02;101646.84;10589038;27;20066;-86
2023/12/25 10:02:50;;;;;;;8.95;2.58;;;;;;;28.75;43.22;101643.72;10597543;27;20577;-87
2023/12/25 10:08:12;;;;;;;12.93;2.67;;;;;;;28.29;44.22;101642.16;10589730;28;20062;-88
2023/12/25 10:13:35;;;;;;;12.70;2.90;;;;;;;27.25;46.94;101632.84;10582831;27;20104;-87
2023/12/25 10:18:59;;;;;;;10.50;2.55;;;;;;;27.09;47.04;101628.13;10618813;27;20043;-89
2023/12/25 10:24:26;;;;;;;7.60;2.60;;;;;;;27.61;46.63;101621.50;10603231;28;20055;-91
2023/12/25 10:29:49;;;;;;;;;;;;;;;27.86;45.93;101621.34;10596347;27;20054;-87
2023/12/25 10:35:15;;;;;;;10.82;2.35;;;;;;;27.94;45.40;101611.06;10595427;27;19924;-87
2023/12/25 10:40:38;;;;;;;8.98;2.70;;;;;;;28.16;44.91;101614.63;10617818;27;20039;-88
2023/12/25 10:46:00;;;;;;;10.00;3.17;;;;;;;28.63;43.98;101598.91;10611187;27;20063;-87
2023/12/25 10:51:28;;;;;;;13.50;4.35;;;;;;;30.19;42.82;101609.41;10611353;27;20049;-88
2023/12/25 10:56:52;;;;;;;6.63;2.38;;;;;;;32.29;39.19;101608.38;10626032;27;20142;-87
2023/12/25 11:02:17;;;;;;;11.98;2.25;;;;;;;32.08;38.68;101605.06;10625517;27;20058;-88
2023/12/25 11:07:41;;;;;;;12.52;3.20;;;;;;;30.12;42.33;101599.78;10556466;27;20058;-88
2023/12/25 11:13:06;;;;;;;12.35;2.33;;;;;;;31.10;41.16;101588.06;10632824;27;20063;-88
2023/12/25 11:18:32;;;;;;;9.38;2.60;;;;;;;30.41;39.07;101579.16;10646786;27;20696;-85
2023/12/25 11:23:57;;;;;;;9.98;3.15;;;;;;;27.63;43.27;101559.94;10638139;27;20043;-85
2023/12/25 11:29:21;;;;;;;11.90;2.63;;;;;;;26.67;47.41;101574.56;10632521;27;20371;-85
2023/12/25 11:34:48;;;;;;;7.95;2.13;;;;;;;26.10;50.06;101547.81;10621559;27;20047;-83
2023/12/25 11:40:13;;;;;;;11.43;2.80;;;;;;;25.28;58.53;101562.31;10613484;27;20058;-81
2023/12/25 11:45:44;;;;;;;10.23;2.58;;;;;;;24.49;66.40;101558.44;10608098;27;20048;-81
2023/12/25 11:51:21;;;;;;;13.40;2.90;;;;;;;24.17;72.88;101553.91;10627936;27;20092;-86
2023/12/25 11:56:45;;;;;;;10.45;2.90;;;;;;;23.88;77.27;101543.06;10554482;27;20422;-86
2023/12/25 12:02:09;;;;;;;12.00;2.22;;;;;;;23.99;78.73;101549.91;10606194;27;20078;-84
2023/12/25 12:07:32;;;;;;;10.98;2.80;;;;;;;23.60;81.87;101559.06;10592993;27;20047;-83
2023/12/25 12:12:57;;;;;;;12.48;3.05;;;;;;;23.60;78.54;101542.88;10593400;27;20035;-83
2023/12/25 12:18:20;;;;;;;10.82;3.20;;;;;;;22.82;82.38;101541.16;10603701;27;20053;-84
2023/12/25 12:23:43;;;;;;;10.27;2.40;;;;;;;22.49;83.02;101550.81;10647884;27;20047;-84
2023/12/25 12:29:07;;;;;;;15.73;3.60;;;;;;;22.26;86.72;101541.38;10640712;27;20509;-85
2023/12/25 12:34:30;;;;;;;12.07;2.50;;;;;;;22.03;86.73;101548.16;10648831;27;20166;-81
2023/12/25 12:39:52;;;;;;;11.07;2.25;;;;;;;22.03;88.08;101546.34;10634937;27;20039;-85
2023/12/25 12:45:17;;;;;;;9.15;2.80;;;;;;;21.96;90.27;101547.38;10648605;27;20509;-82
2023/12/25 12:50:39;;;;;;;14.77;2.58;;;;;;;22.05;89.35;101547.22;10633928;27;20038;-84
2023/12/25 12:56:04;;;;;;;10.77;2.20;;;;;;;22.30;87.03;101552.09;10634739;27;20113;-84
2023/12/25 13:01:29;;;;;;;13.20;2.00;;;;;;;22.49;85.96;101564.25;10632167;27;20476;-87
2023/12/25 13:06:55;;;;;;;12.32;2.15;;;;;;;22.53;85.79;101549.81;10591661;27;20841;-84
2023/12/25 13:12:17;;;;;;;8.23;2.35;;;;;;;22.65;85.94;101553.13;10611411;27;20039;-84
2023/12/25 13:17:41;;;;;;;15.25;2.50;;;;;;;22.65;84.39;101546.84;10618137;27;20069;-84
2023/12/25 13:23:04;;;;;;;10.07;2.38;;;;;;;22.31;87.74;101543.13;10613229;27;20043;-84
2023/12/25 13:28:27;;;;;;;12.80;2.40;;;;;;;21.91;91.97;101543.84;10628090;27;20047;-84
2023/12/25 13:33:51;;;;;;;10.15;2.35;;;;;;;21.59;96.43;101551.63;10647143;27;20046;-84
2023/12/25 13:39:14;;;;;;;9.20;2.35;;;;;;;21.46;98.63;101554.47;10613979;27;20059;-84
2023/12/25 13:44:38;;;;;;;8.48;2.13;;;;;;;21.09;100.00;101547.88;10604157;27;20070;-84
2023/12/25 13:50:02;;;;;;;14.75;2.50;;;;;;;20.91;100.00;101556.22;10626583;27;20061;-84
2023/12/25 13:55:25;;;;;;;10.60;2.30;;;;;;;20.72;100.00;101565.44;10576219;27;20062;-87
2023/12/25 14:00:48;;;;;;;12.90;2.47;;;;;;;20.46;100.00;101565.75;10646688;27;20074;-86
2023/12/25 14:06:12;;;;;;;15.15;2.50;;;;;;;20.29;100.00;101569.47;10639591;27;20378;-86
2023/12/25 14:11:36;;;;;;;11.77;3.03;;;;;;;20.05;100.00;101572.44;10603956;28;20499;-86
2023/12/25 14:16:58;;;;;;;11.50;2.45;;;;;;;19.96;100.00;101575.19;10603130;27;20395;-85
2023/12/25 14:22:22;;;;;;;11.50;2.35;;;;;;;19.79;100.00;101586.09;10587591;28;20047;-84
2023/12/25 14:27:45;;;;;;;15.73;3.60;;;;;;;19.74;100.00;101579.91;10577451;28;20482;-84
2023/12/25 14:33:08;;;;;;;11.38;2.47;;;;;;;19.65;100.00;101587.13;10616235;27;20057;-85
2023/12/25 14:38:32;;;;;;;16.92;3.72;;;;;;;19.52;100.00;101598.81;10568610;27;20070;-84
2023/12/25 14:43:55;;;;;;;15.48;2.90;;;;;;;19.42;100.00;101603.34;10627936;27;20043;-83
2023/12/25 14:49:17;;;;;;;9.50;2.60;;;;;;;19.24;100.00;101596.31;10607832;27;20054;-84
2023/12/25 14:54:41;;;;;;;11.55;2.78;;;;;;;18.96;100.00;101608.09;10607704;28;20055;-84
2023/12/25 15:00:05;;;;;;;15.60;5.70;;;;;;;18.73;100.00;101602.84;10610920;27;20080;-85
2023/12/25 15:05:28;;;;;;;16.58;6.15;;;;;;;18.50;100.00;101600.25;10609535;27;20065;-84
2023/12/25 15:10:52;;;;;;;20.08;8.75;;;;;;;18.23;100.00;101601.22;10621918;27;20039;-84
2023/12/25 15:16:14;;;;;;;21.17;9.80;;;;;;;18.08;100.00;101595.88;10586380;27;20043;-87
2023/12/25 15:21:38;;;;;;;18.02;9.73;;;;;;;17.86;100.00;101597.69;10607890;27;20047;-88
2023/12/25 15:27:02;;;;;;;15.10;8.27;;;;;;;17.83;100.00;101595.03;10606063;27;20069;-85
2023/12/25 15:32:26;;;;;;;14.68;5.47;;;;;;;17.62;100.00;101594.13;10593915;27;20107;-83
2023/12/25 15:37:50;;;;;;;13.18;3.65;;;;;;;17.44;100.00;101595.00;10621802;27;20404;-88
2023/12/25 15:43:16;;;;;;;13.90;4.63;;;;;;;17.37;100.00;101593.22;10611830;27;20055;-84
2023/12/25 15:48:40;;;;;;;20.40;8.77;;;;;;;17.34;100.00;101606.53;10596043;27;20062;-86
2023/12/25 15:54:03;;;;;;;19.88;13.70;;;;;;;17.30;100.00;101600.31;10644742;27;20069;-85
2023/12/25 15:59:30;;;;;;;17.60;11.48;;;;;;;17.18;100.00;101613.66;10633904;27;20053;-85
2023/12/25 16:04:53;;;;;;;15.85;8.00;;;;;;;17.11;100.00;101619.84;10636621;27;20043;-85
2023/12/25 16:10:15;;;;;;;16.17;5.80;;;;;;;16.93;100.00;101619.81;10618792;27;20471;-84
2023/12/25 16:15:39;;;;;;;14.25;3.42;;;;;;;16.80;100.00;101624.22;10599244;27;20043;-85
2023/12/25 16:21:02;;;;;;;17.85;4.70;;;;;;;16.72;100.00;101625.94;10613419;27;20047;-84
2023/12/25 16:26:25;;;;;;;13.60;3.55;;;;;;;16.72;100.00;101628.59;10608032;27;20054;-83
2023/12/25 16:31:49;;;;;;;14.88;5.13;;;;;;;16.80;100.00;101640.22;10633966;27;20047;-83
2023/12/25 16:37:11;;;;;;;14.32;10.32;;;;;;;16.86;100.00;101640.22;10609821;27;20080;-84
2023/12/25 16:42:34;;;;;;;24.63;18.15;;;;;;;16.70;100.00;101652.59;10625069;27;20035;-86
2023/12/25 16:47:59;;;;;;;29.20;22.30;;;;;;;16.64;100.00;101659.66;10618022;27;20053;-85
2023/12/25 16:53:25;;;;;;;27.90;24.90;;;;;;;16.37;100.00;101673.69;10590282;27;20066;-84
2023/12/25 16:58:49;;;;;;;25.65;19.55;;;;;;;16.14;100.00;101667.31;10601679;27;20047;-83
2023/12/25 17:04:14;;;;;;;26.92;17.98;;;;;;;16.06;100.00;101679.69;10600685;27;20047;-84
2023/12/25 17:09:37;;;;;;;37.63;23.10;;;;;;;16.00;100.00;101684.97;10605435;27;20415;-88
2023/12/25 17:15:00;;;;;;;29.52;16.73;;;;;;;15.86;100.00;101693.72;10604576;27;20039;-86
2023/12/25 17:20:25;;;;;;;35.83;23.63;;;;;;;15.82;100.00;101694.56;10604559;27;20051;-87
2023/12/25 17:25:48;;;;;;;18.88;7.30;;;;;;;16.20;100.00;101699.34;10586661;27;20143;-87
2023/12/25 17:31:11;;;;;;;27.42;18.80;;;;;;;16.15;100.00;101704.59;10603672;27;20036;-86
2023/12/25 17:36:35;;;;;;;48.97;31.45;;;;;;;16.06;100.00;101706.31;10591898;27;20043;-89
2023/12/25 17:41:58;;;;;;;15.35;8.23;;;;;;;16.15;100.00;101717.03;10548968;28;20066;-84
2023/12/25 17:47:20;;;;;;;33.95;19.30;;;;;;;16.10;100.00;101717.00;10590078;27;20073;-85
2023/12/25 17:52:45;;;;;;;30.23;19.98;;;;;;;15.90;100.00;101724.81;10603361;27;20039;-86
2023/12/25 17:58:07;;;;;;;45.25;21.08;;;;;;;15.80;100.00;101730.97;10602780;27;20067;-85
2023/12/25 18:03:31;;;;;;;35.83;23.75;;;;;;;15.62;100.00;101732.53;10604051;28;20051;-86
2023/12/25 18:08:56;;;;;;;77.15;38.85;;;;;;;15.51;100.00;101729.72;10590472;28;20054;-86
2023/12/25 18:14:18;;;;;;;34.75;15.25;;;;;;;15.47;100.00;101733.22;10603908;28;20470;-83
2023/12/25 18:19:41;;;;;;;26.40;14.77;;;;;;;15.29;100.00;101733.91;10603035;28;20501;-82
2023/12/25 18:25:06;;;;;;;37.85;21.60;;;;;;;15.26;100.00;101744.50;10603710;28;20395;-83
2023/12/25 18:30:28;;;;;;;27.63;19.60;;;;;;;15.01;100.00;101745.97;10603883;28;20047;-81
2023/12/25 18:35:51;;;;;;;33.42;25.80;;;;;;;14.77;100.00;101748.25;10603160;28;20142;-85
2023/12/25 18:41:17;;;;;;;18.20;5.40;;;;;;;14.59;100.00;101755.97;10589530;28;20070;-82
2023/12/25 18:46:40;;;;;;;23.92;10.95;;;;;;;14.48;100.00;101760.25;10629488;27;20040;-85
2023/12/25 18:52:03;;;;;;;17.92;7.07;;;;;;;14.33;100.00;101756.44;10567040;28;20047;-85
2023/12/25 18:57:27;;;;;;;17.50;10.55;;;;;;;14.19;100.00;101757.97;10554083;28;20047;-85
2023/12/25 19:02:50;;;;;;;14.45;5.18;;;;;;;14.31;100.00;101758.16;10568768;28;20521;-84
2023/12/25 19:08:13;;;;;;;23.58;12.18;;;;;;;14.17;100.00;101759.72;10599088;27;20579;-84
2023/12/25 19:13:38;;;;;;;19.60;9.20;;;;;;;14.18;100.00;101758.81;10596366;27;20479;-84
2023/12/25 19:19:01;;;;;;;15.35;7.07;;;;;;;14.13;100.00;101762.28;10595453;27;20047;-84
2023/12/25 19:24:23;;;;;;;35.65;17.30;;;;;;;13.99;100.00;101770.00;10599753;27;20533;-86
2023/12/25 19:29:48;;;;;;;41.33;30.55;;;;;;;14.10;100.00;101779.06;10594798;27;20051;-84
2023/12/25 19:35:13;;;;;;;25.02;13.82;;;;;;;14.10;100.00;101781.72;10552398;28;20058;-87
2023/12/25 19:40:36;;;;;;;36.20;32.28;;;;;;;14.15;100.00;101780.03;10566635;27;20044;-84
2023/12/25 19:46:00;;;;;;;27.35;15.60;;;;;;;14.23;100.00;101793.47;10590194;27;20047;-84
2023/12/25 19:51:22;;;;;;;37.17;28.48;;;;;;;14.22;100.00;101786.34;10593553;27;20051;-84
2023/12/25 19:56:47;;;;;;;39.80;26.23;;;;;;;14.16;100.00;101786.25;10607626;27;20135;-84
2023/12/25 20:02:11;;;;;;;27.35;18.40;;;;;;;14.22;100.00;101783.69;10622006;27;20038;-83
2023/12/25 20:07:34;;;;;;;23.15;15.23;;;;;;;14.14;100.00;101794.19;10636606;27;20043;-82
2023/12/25 20:13:01;;;;;;;15.50;7.25;;;;;;;13.96;100.00;101792.09;10604093;27;20050;-78
2023/12/25 20:18:25;;;;;;;24.90;8.23;;;;;;;13.91;100.00;101793.75;10591690;27;20047;-81
2023/12/25 20:23:48;;;;;;;20.05;7.35;;;;;;;14.02;100.00;101790.41;10592378;27;20045;-81
2023/12/25 20:29:11;;;;;;;33.20;17.33;;;;;;;13.80;100.00;101795.31;10591252;27;20043;-82
2023/12/25 20:34:38;;;;;;;19.27;11.43;;;;;;;13.66;100.00;101798.56;10592206;27;20116;-84
2023/12/25 20:40:02;;;;;;;21.52;10.48;;;;;;;13.72;100.00;101796.06;10605915;27;20046;-84
2023/12/25 20:45:27;;;;;;;13.05;4.40;;;;;;;13.62;100.00;101797.63;10589710;27;20395;-82
2023/12/25 20:50:52;;;;;;;13.25;6.15;;;;;;;13.33;100.00;101802.31;10590806;27;20380;-84
2023/12/25 20:56:15;;;;;;;18.17;7.05;;;;;;;13.15;100.00;101799.28;10589921;27;20043;-83
2023/12/25 21:01:42;;;;;;;14.30;4.68;;;;;;;13.32;100.00;101800.56;10604983;27;20047;-83
2023/12/25 21:07:08;;;;;;;34.05;21.60;;;;;;;13.45;100.00;101799.06;10604099;27;20050;-84
2023/12/25 21:12:31;;;;;;;41.33;27.50;;;;;;;13.51;100.00;101801.84;10589941;27;20090;-84
2023/12/25 21:17:53;;;;;;;18.90;9.38;;;;;;;13.50;100.00;101803.59;10586869;27;20515;-85
2023/12/25 21:23:17;;;;;;;13.38;4.30;;;;;;;13.49;100.00;101806.19;10589434;27;20039;-86
2023/12/25 21:28:40;;;;;;;17.80;7.57;;;;;;;13.36;100.00;101810.38;10633508;27;20433;-84
2023/12/25 21:34:03;;;;;;;15.73;4.95;;;;;;;13.22;100.00;101801.22;10603703;27;20050;-85
2023/12/25 21:39:27;;;;;;;19.40;6.05;;;;;;;13.22;100.00;101813.56;10597521;27;20047;-83
2023/12/25 21:44:49;;;;;;;19.48;8.05;;;;;;;13.28;100.00;101801.34;10623136;27;20491;-84
2023/12/25 21:50:13;;;;;;;14.20;5.63;;;;;;;13.41;100.00;101805.13;10632070;27;20070;-83
2023/12/25 21:55:37;;;;;;;15.60;4.85;;;;;;;13.45;100.00;101805.25;10616257;27;20394;-84
2023/12/25 22:01:00;;;;;;;11.80;4.75;;;;;;;13.48;100.00;101800.00;10643002;27;20051;-82
2023/12/25 22:06:23;;;;;;;32.10;15.38;;;;;;;13.37;100.00;101798.91;10589434;28;20426;-82
2023/12/25 22:11:47;;;;;;;13.63;4.07;;;;;;;13.26;100.00;101803.06;10604434;27;20072;-85
2023/12/25 22:17:11;;;;;;;13.23;5.10;;;;;;;13.22;100.00;101797.66;10589378;28;20043;-85
2023/12/25 22:22:33;;;;;;;15.10;4.88;;;;;;;13.13;100.00;101787.75;10604726;27;20051;-84
2023/12/25 22:27:58;;;;;;;10.02;3.80;;;;;;;13.03;100.00;101794.59;10636788;27;20095;-83
2023/12/25 22:33:20;;;;;;;20.60;8.32;;;;;;;13.02;100.00;101778.63;10626005;27;20134;-82
2023/12/25 22:38:44;;;;;;;11.05;2.92;;;;;;;12.96;100.00;101776.75;10597839;27;20099;-82
2023/12/25 22:44:09;;;;;;;12.02;2.50;;;;;;;13.39;100.00;101773.28;10555217;28;20051;-84
2023/12/25 22:49:33;;;;;;;16.67;3.72;;;;;;;13.35;100.00;101763.47;10568850;28;20607;-84
2023/12/25 22:54:58;;;;;;;25.42;9.98;;;;;;;13.24;100.00;101761.47;10638677;27;20043;-83
2023/12/25 23:00:27;;;;;;;15.40;5.22;;;;;;;12.94;100.00;101770.50;10596002;27;20048;-81
2023/12/25 23:05:50;;;;;;;9.82;3.15;;;;;;;12.89;100.00;101774.81;10605349;27;20537;-81
2023/12/25 23:11:13;;;;;;;35.45;12.95;;;;;;;12.97;100.00;101772.34;10635853;27;20134;-81
2023/12/25 23:16:37;;;;;;;15.48;6.00;;;;;;;12.84;100.00;101781.78;10596692;27;20046;-83
2023/12/25 23:22:00;;;;;;;23.55;9.60;;;;;;;12.83;100.00;101780.00;10652831;27;20047;-83
2023/12/25 23:27:26;;;;;;;73.22;46.92;;;;;;;12.87;100.00;101776.53;10652621;27;20038;-84
2023/12/25 23:32:50;;;;;;;14.18;5.45;;;;;;;12.73;100.00;101776.22;10647134;27;20047;-82
2023/12/25 23:38:12;;;;;;;24.38;12.40;;;;;;;12.74;100.00;101785.97;10650764;27;20062;-82
2023/12/25 23:43:35;;;;;;;16.17;5.05;;;;;;;12.78;100.00;101794.91;10635089;27;20050;-83
2023/12/25 23:49:01;;;;;;;10.63;3.60;;;;;;;12.73;100.00;101792.13;10594440;27;20055;-83
2023/12/25 23:54:23;;;;;;;17.13;6.90;;;;;;;12.72;100.00;101789.47;10608684;27;20068;-83
2023/12/25 23:59:46;;;;;;;21.90;10.38;;;;;;;12.70;100.00;101794.72;10593883;27;20453;-82
